createdAt,value
2019-04-21T00:00:52.384Z,40.10
2019-04-21T00:03:23.619Z,41.43
2019-04-21T00:06:12.071Z,44.73
2019-04-21T00:08:37.602Z,39.30
2019-04-21T00:11:09.698Z,42.30
2019-04-21T00:13:33.184Z,37.67
2019-04-21T00:15:53.772Z,39.53
2019-04-21T00:18:23.387Z,33.70
2019-04-21T00:20:55.177Z,43.83
2019-04-21T00:23:41.298Z,41.53
2019-04-21T00:26:07.109Z,37.77
2019-04-21T00:28:49.060Z,38.60
2019-04-21T00:31:12.653Z,41.00
2019-04-21T00:33:29.999Z,37.13
2019-04-21T00:36:02.065Z,45.33
2019-04-21T00:38:57.443Z,37.97
2019-04-21T00:41:23.522Z,35.60
2019-04-21T00:43:43.407Z,37.50
2019-04-21T00:46:04.735Z,37.30
2019-04-21T00:48:48.613Z,35.70
2019-04-21T00:51:35.578Z,37.27
2019-04-21T00:53:59.558Z,37.40
2019-04-21T00:56:21.986Z,43.63
2019-04-21T00:58:57.780Z,43.97
2019-04-21T01:01:22.306Z,37.80
2019-04-21T01:03:51.968Z,42.30
2019-04-21T01:06:22.705Z,40.30
2019-04-21T01:08:45.722Z,41.50
2019-04-21T01:11:23.958Z,36.93
2019-04-21T01:14:02.409Z,42.03
2019-04-21T01:16:31.587Z,40.87
2019-04-21T01:18:49.315Z,42.33
2019-04-21T01:21:01.080Z,41.80
2019-04-21T01:23:31.758Z,43.23
2019-04-21T01:26:14.507Z,42.13
2019-04-21T01:28:51.116Z,41.40
2019-04-21T01:31:17.453Z,43.57
2019-04-21T01:33:50.371Z,38.90
2019-04-21T01:36:18.007Z,38.83
2019-04-21T01:38:58.295Z,39.73
2019-04-21T01:41:25.468Z,38.73
2019-04-21T01:43:49.362Z,42.43
2019-04-21T01:46:24.556Z,42.07
2019-04-21T01:48:42.806Z,41.37
2019-04-21T01:51:20.934Z,37.30
2019-04-21T01:54:03.520Z,36.80
2019-04-21T01:56:55.665Z,40.20
2019-04-21T01:59:25.998Z,42.50
2019-04-21T02:02:01.700Z,48.43
2019-04-21T02:04:37.380Z,41.90
2019-04-21T02:07:03.244Z,42.43
2019-04-21T02:09:38.390Z,45.73
2019-04-21T02:12:09.748Z,38.93
2019-04-21T02:14:46.272Z,44.43
2019-04-21T02:17:09.952Z,42.27
2019-04-21T02:19:31.327Z,43.93
2019-04-21T02:21:59.562Z,44.30
2019-04-21T02:24:45.136Z,43.47
2019-04-21T02:27:12.787Z,51.10
2019-04-21T02:29:41.602Z,42.33
2019-04-21T02:39:57.289Z,46.47
2019-04-21T02:42:20.117Z,42.67
2019-04-21T02:44:57.301Z,40.97
2019-04-21T02:47:27.403Z,44.80
2019-04-21T02:50:00.403Z,39.07
2019-04-21T02:55:17.532Z,36.93
2019-04-21T03:00:00.010Z,45.87
2019-04-21T03:05:20.438Z,39.17
2019-04-21T03:07:52.072Z,42.07
2019-04-21T03:10:22.294Z,40.90
2019-04-21T03:17:48.770Z,47.57
2019-04-21T03:20:19.024Z,38.87
2019-04-21T03:37:42.462Z,38.20
2019-04-21T03:42:49.009Z,38.57
2019-04-21T03:45:32.713Z,30.50
2019-04-21T03:52:56.154Z,37.50
2019-04-21T03:55:48.809Z,32.20
2019-04-21T04:03:42.154Z,27.90
2019-04-21T04:09:14.341Z,38.03
2019-04-21T04:16:20.203Z,24.00
2019-04-21T04:18:52.794Z,27.70
2019-04-21T04:21:28.858Z,29.53
2019-04-21T04:26:26.030Z,29.50
2019-04-21T04:28:54.267Z,29.63
2019-04-21T04:33:59.913Z,24.73
2019-04-21T04:36:33.391Z,24.60
2019-04-21T04:39:01.669Z,30.17
2019-04-21T04:44:37.255Z,25.27
2019-04-21T04:47:01.949Z,21.20
2019-04-21T04:49:43.443Z,25.23
2019-04-21T04:54:31.615Z,22.80
2019-04-21T04:57:00.993Z,26.97
2019-04-21T05:02:00.346Z,28.53
2019-04-21T05:04:23.844Z,26.03
2019-04-21T05:07:06.622Z,23.47
2019-04-21T05:09:22.458Z,25.20
2019-04-21T05:11:48.735Z,32.77
2019-04-21T05:14:23.015Z,24.20
2019-04-21T05:22:15.611Z,24.93
2019-04-21T05:24:20.828Z,22.87
2019-04-21T05:26:49.071Z,25.60
2019-04-21T05:29:13.017Z,21.43
2019-04-21T05:32:04.964Z,20.40
2019-04-21T05:34:31.589Z,21.57
2019-04-21T05:37:18.783Z,22.33
2019-04-21T05:39:41.984Z,19.53
2019-04-21T05:42:05.107Z,22.73
2019-04-21T05:47:29.563Z,16.93
2019-04-21T05:49:50.000Z,20.97
2019-04-21T05:52:21.320Z,16.80
2019-04-21T05:54:57.498Z,19.73
2019-04-21T05:57:25.435Z,17.93
2019-04-21T06:00:10.338Z,21.87
2019-04-21T06:02:24.321Z,21.43
2019-04-21T06:05:05.812Z,15.97
2019-04-21T06:12:28.593Z,15.83
2019-04-21T06:15:03.755Z,18.70
2019-04-21T06:17:30.315Z,20.70
2019-04-21T06:22:23.468Z,16.00
2019-04-21T06:25:21.237Z,16.97
2019-04-21T06:27:34.342Z,21.50
2019-04-21T06:30:06.572Z,15.43
2019-04-21T06:35:20.764Z,19.97
2019-04-21T06:40:33.699Z,14.10
2019-04-21T06:42:32.498Z,13.57
2019-04-21T06:45:12.286Z,13.40
2019-04-21T06:50:10.317Z,14.40
2019-04-21T06:52:52.198Z,10.00
2019-04-21T06:55:12.491Z,12.40
2019-04-21T07:00:06.196Z,9.47
2019-04-21T07:02:43.796Z,11.20
2019-04-21T07:05:07.357Z,11.40
2019-04-21T07:07:40.513Z,13.90
2019-04-21T07:10:10.739Z,12.17
2019-04-21T07:12:37.063Z,17.00
2019-04-21T07:15:06.091Z,12.17
2019-04-21T07:17:35.803Z,12.10
2019-04-21T07:25:09.283Z,10.20
2019-04-21T07:27:44.434Z,10.20
2019-04-21T07:30:24.312Z,13.90
2019-04-21T07:32:44.215Z,15.30
2019-04-21T07:35:11.834Z,13.23
2019-04-21T07:37:54.079Z,11.67
2019-04-21T07:40:07.750Z,14.00
2019-04-21T07:42:32.785Z,10.40
2019-04-21T07:45:04.574Z,13.80
2019-04-21T07:47:57.523Z,13.50
2019-04-21T07:50:38.266Z,11.77
2019-04-21T07:53:25.892Z,17.50
2019-04-21T07:58:14.562Z,33.17
2019-04-21T08:00:52.648Z,16.43
2019-04-21T08:03:13.842Z,11.80
2019-04-21T08:05:47.098Z,9.70
2019-04-21T08:08:14.219Z,33.53
2019-04-21T08:10:47.444Z,11.33
2019-04-21T08:13:25.179Z,13.77
2019-04-21T08:15:51.051Z,8.20
2019-04-21T08:18:25.490Z,28.27
2019-04-21T08:20:49.169Z,27.57
2019-04-21T08:23:20.426Z,23.67
2019-04-21T08:28:21.328Z,18.37
2019-04-21T08:30:47.719Z,22.47
2019-04-21T08:33:26.294Z,14.03
2019-04-21T08:38:21.901Z,11.50
2019-04-21T08:40:49.477Z,32.87
2019-04-21T08:43:29.036Z,12.43
2019-04-21T08:48:19.474Z,10.20
2019-04-21T08:50:54.639Z,11.40
2019-04-21T08:53:20.839Z,11.43
2019-04-21T08:55:58.710Z,13.20
2019-04-21T08:58:34.341Z,7.93
2019-04-21T09:01:02.413Z,12.77
2019-04-21T09:03:51.672Z,8.10
2019-04-21T09:06:27.974Z,11.00
2019-04-21T09:08:53.323Z,14.50
2019-04-21T09:11:16.332Z,8.60
2019-04-21T09:13:47.799Z,10.73
2019-04-21T09:16:15.362Z,22.87
2019-04-21T09:18:45.717Z,6.00
2019-04-21T09:21:25.541Z,11.83
2019-04-21T09:23:52.355Z,11.03
2019-04-21T09:26:25.242Z,9.63
2019-04-21T09:28:48.209Z,8.07
2019-04-21T09:31:05.311Z,14.70
2019-04-21T09:33:39.092Z,15.53
2019-04-21T09:36:07.027Z,7.37
2019-04-21T09:38:38.064Z,12.53
2019-04-21T09:41:06.760Z,14.10
2019-04-21T09:43:42.067Z,11.93
2019-04-21T09:46:06.157Z,9.17
2019-04-21T09:48:49.097Z,9.77
2019-04-21T09:51:06.550Z,8.40
2019-04-21T09:53:38.777Z,8.50
2019-04-21T09:56:10.512Z,7.93
2019-04-21T09:58:40.762Z,7.87
2019-04-21T10:01:15.988Z,8.80
2019-04-21T10:03:42.764Z,9.57
2019-04-21T10:06:06.725Z,8.57
2019-04-21T10:08:36.393Z,13.43
2019-04-21T10:11:05.362Z,7.63
2019-04-21T10:13:34.016Z,25.23
2019-04-21T10:16:21.583Z,16.37
2019-04-21T10:18:50.475Z,9.40
2019-04-21T10:21:19.800Z,15.00
2019-04-21T10:23:50.010Z,15.87
2019-04-21T10:26:18.807Z,10.73
2019-04-21T10:28:48.948Z,8.60
2019-04-21T10:31:18.515Z,9.87
2019-04-21T10:33:48.338Z,7.77
2019-04-21T10:36:17.176Z,5.47
2019-04-21T10:38:50.364Z,12.13
2019-04-21T10:41:16.999Z,9.30
2019-04-21T10:43:47.037Z,11.00
2019-04-21T10:46:16.929Z,8.93
2019-04-21T10:48:46.343Z,9.00
2019-04-21T10:51:14.979Z,7.73
2019-04-21T10:53:47.701Z,9.53
2019-04-21T10:56:23.925Z,6.90
2019-04-21T10:58:46.358Z,5.70
2019-04-21T11:01:16.878Z,9.80
2019-04-21T11:03:55.900Z,5.40
2019-04-21T11:06:24.596Z,4.20
2019-04-21T11:08:55.615Z,9.90
2019-04-21T11:11:23.903Z,10.50
2019-04-21T11:13:52.666Z,5.47
2019-04-21T11:16:21.630Z,4.63
2019-04-21T11:18:51.502Z,10.23
2019-04-21T11:21:20.841Z,6.83
2019-04-21T11:23:50.132Z,4.87
2019-04-21T11:26:19.887Z,7.70
2019-04-21T11:28:48.975Z,9.90
2019-04-21T11:31:23.064Z,4.77
2019-04-21T11:33:51.641Z,3.90
2019-04-21T11:36:21.487Z,4.90
2019-04-21T11:39:09.919Z,3.90
2019-04-21T11:41:27.951Z,3.57
2019-04-21T11:43:57.225Z,5.97
2019-04-21T11:46:26.800Z,12.33
2019-04-21T11:48:55.600Z,4.27
2019-04-21T11:51:24.886Z,8.90
2019-04-21T11:53:54.875Z,11.90
2019-04-21T11:56:24.984Z,4.00
2019-04-21T11:58:54.067Z,4.60
2019-04-21T12:01:25.630Z,3.53
2019-04-21T12:03:55.626Z,4.17
2019-04-21T12:06:32.147Z,3.67
2019-04-21T12:08:57.665Z,3.93
2019-04-21T12:11:25.223Z,4.10
2019-04-21T12:13:56.254Z,6.00
2019-04-21T12:16:25.187Z,5.60
2019-04-21T12:18:54.673Z,5.67
2019-04-21T12:21:23.435Z,4.50
2019-04-21T12:23:52.415Z,4.60
2019-04-21T12:26:22.148Z,4.60
2019-04-21T12:28:51.936Z,5.03
2019-04-21T12:31:25.496Z,5.17
2019-04-21T12:33:58.626Z,4.37
2019-04-21T12:36:27.544Z,5.70
2019-04-21T12:39:00.068Z,4.37
2019-04-21T12:41:26.871Z,3.10
2019-04-21T12:43:55.324Z,3.63
2019-04-21T12:46:23.738Z,8.60
2019-04-21T12:48:52.171Z,4.53
2019-04-21T12:51:21.929Z,4.00
2019-04-21T12:53:51.775Z,4.17
2019-04-21T12:56:20.730Z,4.70
2019-04-21T12:58:49.155Z,3.23
2019-04-21T13:01:18.840Z,5.83
2019-04-21T13:03:48.034Z,4.53
2019-04-21T13:06:16.791Z,3.30
2019-04-21T13:08:53.533Z,3.03
2019-04-21T13:11:15.390Z,3.70
2019-04-21T13:13:43.915Z,4.40
2019-04-21T13:16:13.495Z,3.53
2019-04-21T13:18:42.501Z,3.80
2019-04-21T13:21:12.052Z,7.43
2019-04-21T13:23:41.245Z,2.93
2019-04-21T13:26:10.123Z,4.17
2019-04-21T13:28:40.467Z,4.80
2019-04-21T13:31:09.103Z,3.10
2019-04-21T13:33:37.775Z,6.40
2019-04-21T13:36:07.666Z,5.83
2019-04-21T13:38:50.480Z,3.53
2019-04-21T13:41:22.692Z,5.03
2019-04-21T13:43:41.352Z,3.07
2019-04-21T13:46:10.246Z,2.73
2019-04-21T13:48:40.204Z,3.53
2019-04-21T13:51:09.108Z,2.43
2019-04-21T13:53:37.935Z,3.47
2019-04-21T13:56:06.890Z,2.50
2019-04-21T13:58:35.444Z,5.20
2019-04-21T14:01:05.508Z,2.97
2019-04-21T14:03:35.493Z,3.80
2019-04-21T14:06:04.616Z,3.40
2019-04-21T14:08:33.533Z,6.03
2019-04-21T14:11:05.042Z,4.20
2019-04-21T14:13:34.238Z,3.63
2019-04-21T14:16:04.036Z,4.77
2019-04-21T14:18:32.917Z,7.03
2019-04-21T14:21:03.118Z,4.53
2019-04-21T14:23:38.108Z,8.97
2019-04-21T14:26:03.877Z,4.33
2019-04-21T14:28:33.547Z,4.33
2019-04-21T14:31:02.350Z,4.17
2019-04-21T14:33:31.927Z,4.60
2019-04-21T14:36:01.041Z,4.57
2019-04-21T14:38:29.611Z,5.00
2019-04-21T14:40:58.204Z,7.97
2019-04-21T14:43:27.718Z,8.60
2019-04-21T14:46:07.257Z,3.57
2019-04-21T14:48:54.961Z,3.83
2019-04-21T14:51:25.256Z,3.27
2019-04-21T14:53:56.305Z,6.50
2019-04-21T14:56:27.057Z,4.00
2019-04-21T14:58:57.636Z,4.70
2019-04-21T15:01:26.221Z,5.13
2019-04-21T15:03:55.455Z,8.13
2019-04-21T15:06:25.351Z,3.33
2019-04-21T15:08:55.404Z,2.70
2019-04-21T15:11:24.241Z,3.30
2019-04-21T15:13:53.650Z,5.97
2019-04-21T15:16:22.821Z,3.80
2019-04-21T15:18:52.693Z,4.83
2019-04-21T15:21:21.625Z,3.67
2019-04-21T15:23:50.713Z,8.60
2019-04-21T15:26:20.073Z,8.50
2019-04-21T15:28:48.940Z,3.67
2019-04-21T15:31:26.690Z,3.87
2019-04-21T15:33:47.731Z,3.93
2019-04-21T15:36:16.696Z,11.33
2019-04-21T15:38:45.776Z,8.43
2019-04-21T15:41:14.553Z,4.70
2019-04-21T15:43:44.566Z,3.20
2019-04-21T15:46:13.404Z,4.60
2019-04-21T15:48:41.917Z,3.63
2019-04-21T15:51:11.121Z,5.40
2019-04-21T15:53:41.776Z,4.10
2019-04-21T15:56:22.658Z,6.03
2019-04-21T15:59:12.583Z,4.10
2019-04-21T16:01:46.406Z,4.10
2019-04-21T16:04:15.081Z,5.60
2019-04-21T16:06:43.710Z,4.00
2019-04-21T16:09:19.846Z,9.73
2019-04-21T16:11:43.947Z,4.60
2019-04-21T16:14:12.606Z,3.13
2019-04-21T16:16:43.266Z,2.97
2019-04-21T16:19:12.292Z,4.27
2019-04-21T16:21:44.401Z,5.23
2019-04-21T16:24:12.241Z,4.87
2019-04-21T16:26:42.561Z,3.93
2019-04-21T16:29:11.358Z,3.53
2019-04-21T16:31:40.376Z,5.23
2019-04-21T16:34:09.305Z,5.67
2019-04-21T16:36:38.071Z,3.50
2019-04-21T16:39:07.772Z,4.13
2019-04-21T16:41:36.211Z,4.40
2019-04-21T16:44:05.169Z,3.37
2019-04-21T16:46:33.814Z,5.37
2019-04-21T16:49:02.242Z,5.53
2019-04-21T16:51:31.796Z,13.90
2019-04-21T16:54:02.051Z,14.27
2019-04-21T16:56:39.522Z,4.30
2019-04-21T16:59:10.543Z,7.40
2019-04-21T17:01:40.536Z,6.73
2019-04-21T17:04:10.654Z,10.13
2019-04-21T17:06:40.784Z,7.20
2019-04-21T17:09:10.564Z,6.97
2019-04-21T17:11:41.944Z,5.13
2019-04-21T17:14:28.369Z,7.50
2019-04-21T17:17:03.832Z,3.60
2019-04-21T17:19:19.059Z,9.80
2019-04-21T17:21:41.654Z,6.77
2019-04-21T17:24:10.618Z,6.87
2019-04-21T17:26:41.289Z,11.10
2019-04-21T17:29:10.423Z,13.63
2019-04-21T17:31:39.323Z,13.97
2019-04-21T17:34:13.752Z,17.03
2019-04-21T17:36:39.284Z,12.00
2019-04-21T17:39:08.947Z,12.37
2019-04-21T17:41:54.146Z,12.00
2019-04-21T17:44:08.752Z,15.00
2019-04-21T17:46:46.052Z,13.00
2019-04-21T17:49:08.618Z,12.07
2019-04-21T17:51:55.110Z,12.80
2019-04-21T17:54:32.197Z,13.43
2019-04-21T17:57:20.299Z,16.00
2019-04-21T18:02:12.618Z,12.20
2019-04-21T18:04:49.345Z,11.20
2019-04-21T18:07:08.458Z,15.43
2019-04-21T18:09:51.844Z,12.03
2019-04-21T18:12:16.668Z,17.07
2019-04-21T18:14:28.472Z,9.20
2019-04-21T18:16:58.299Z,19.33
2019-04-21T18:19:31.235Z,10.80
2019-04-21T18:22:05.524Z,8.97
2019-04-21T18:24:44.676Z,9.93
2019-04-21T18:27:07.800Z,9.07
2019-04-21T18:29:34.515Z,12.10
2019-04-21T18:32:02.962Z,9.50
2019-04-21T18:34:44.287Z,8.67
2019-04-21T18:37:14.812Z,19.10
2019-04-21T18:39:52.666Z,9.40
2019-04-21T18:42:31.227Z,12.17
2019-04-21T18:45:28.210Z,13.30
2019-04-21T18:47:51.086Z,10.70
2019-04-21T18:50:31.591Z,18.10
2019-04-21T18:53:12.046Z,15.00
2019-04-21T18:55:39.118Z,11.50
2019-04-21T18:58:03.320Z,28.03
2019-04-21T19:00:36.688Z,63.98
2019-04-21T19:03:09.641Z,46.13
2019-04-21T19:05:41.170Z,20.20
2019-04-21T19:08:19.084Z,18.37
2019-04-21T19:10:55.464Z,28.53
2019-04-21T19:13:38.078Z,20.90
2019-04-21T19:16:17.222Z,16.53
2019-04-21T19:20:54.050Z,15.47
2019-04-21T19:23:36.348Z,16.00
2019-04-21T19:26:10.424Z,18.90
2019-04-21T19:28:26.291Z,14.87
2019-04-21T19:31:05.010Z,10.27
2019-04-21T19:33:26.627Z,10.93
2019-04-21T19:35:39.617Z,12.47
2019-04-21T19:38:10.885Z,13.83
2019-04-21T19:40:52.231Z,18.00
2019-04-21T19:43:31.625Z,13.00
2019-04-21T19:45:54.110Z,12.87
2019-04-21T19:48:25.256Z,14.73
2019-04-21T19:50:57.177Z,11.73
2019-04-21T19:53:25.331Z,14.27
2019-04-21T19:55:40.493Z,15.87
2019-04-21T19:58:10.645Z,20.13
2019-04-21T20:00:40.246Z,14.83
2019-04-21T20:03:10.355Z,13.70
2019-04-21T20:05:47.601Z,14.70
2019-04-21T20:08:23.692Z,10.37
2019-04-21T20:11:01.270Z,11.20
2019-04-21T20:13:40.548Z,11.47
2019-04-21T20:16:01.406Z,14.97
2019-04-21T20:18:21.231Z,15.37
2019-04-21T20:20:41.110Z,16.80
2019-04-21T20:23:18.088Z,13.00
2019-04-21T20:25:47.425Z,14.90
2019-04-21T20:28:21.330Z,16.23
2019-04-21T20:30:56.047Z,11.90
2019-04-21T20:36:02.198Z,11.90
2019-04-21T20:38:19.341Z,21.10
2019-04-21T20:40:52.683Z,10.37
2019-04-21T20:43:33.726Z,10.97
2019-04-21T20:48:20.011Z,15.40
2019-04-21T20:51:00.314Z,11.97
2019-04-21T20:53:25.938Z,12.63
2019-04-21T20:55:52.726Z,19.27
2019-04-21T20:58:30.877Z,14.10
2019-04-21T21:01:23.425Z,13.23
2019-04-21T21:03:29.125Z,12.07
2019-04-21T21:05:52.998Z,17.00
2019-04-21T21:08:35.726Z,16.03
2019-04-21T21:11:23.129Z,12.43
2019-04-21T21:13:55.324Z,12.27
2019-04-21T21:16:35.100Z,11.50
2019-04-21T21:19:08.090Z,14.93
2019-04-21T21:21:20.626Z,12.70
2019-04-21T21:23:53.532Z,13.90
2019-04-21T21:26:25.785Z,11.60
2019-04-21T21:28:48.656Z,12.33
2019-04-21T21:31:25.196Z,13.00
2019-04-21T21:34:03.396Z,21.30
2019-04-21T21:36:26.615Z,13.37
2019-04-21T21:38:54.587Z,14.50
2019-04-21T21:41:16.582Z,15.67
2019-04-21T21:43:39.245Z,12.87
2019-04-21T21:46:24.899Z,15.87
2019-04-21T21:48:51.765Z,14.53
2019-04-21T21:51:17.563Z,15.43
2019-04-21T21:53:40.179Z,12.20
2019-04-21T21:56:08.978Z,17.90
2019-04-21T21:58:42.341Z,11.93
2019-04-21T22:01:11.722Z,19.93
2019-04-21T22:03:46.253Z,14.80
2019-04-21T22:06:16.376Z,22.50
2019-04-21T22:08:42.634Z,18.33
2019-04-21T22:11:11.401Z,15.33
2019-04-21T22:13:47.602Z,15.63
2019-04-21T22:16:14.054Z,14.50
2019-04-21T22:19:03.604Z,13.93
2019-04-21T22:21:26.119Z,11.70
2019-04-21T22:23:51.517Z,14.83
2019-04-21T22:26:11.452Z,10.83
2019-04-21T22:28:40.129Z,10.53
2019-04-21T22:31:14.795Z,13.67
2019-04-21T22:33:46.716Z,14.90
2019-04-21T22:36:20.974Z,11.33
2019-04-21T22:38:54.886Z,11.20
2019-04-21T22:41:18.998Z,8.77
2019-04-21T22:43:43.763Z,11.43
2019-04-21T22:46:12.340Z,9.13
2019-04-21T22:48:40.925Z,14.30
2019-04-21T22:51:20.477Z,14.73
2019-04-21T22:53:44.769Z,10.03
2019-04-21T22:56:17.645Z,12.17
2019-04-21T22:58:44.051Z,10.73
2019-04-21T23:01:11.043Z,20.10
2019-04-21T23:03:47.032Z,10.90
2019-04-21T23:06:19.524Z,10.17
2019-04-21T23:08:42.386Z,11.30
2019-04-21T23:11:12.578Z,12.00
2019-04-21T23:13:40.421Z,20.50
2019-04-21T23:16:09.867Z,17.60
2019-04-21T23:18:55.499Z,8.90
2019-04-21T23:21:19.508Z,9.43
2019-04-21T23:24:01.858Z,149.60
2019-04-21T23:26:26.711Z,54.47
2019-04-21T23:29:03.042Z,15.70
2019-04-21T23:31:30.470Z,10.77
2019-04-21T23:33:42.024Z,10.53
2019-04-21T23:36:16.550Z,10.77
2019-04-21T23:38:44.893Z,11.57
2019-04-21T23:41:11.381Z,14.53
2019-04-21T23:43:40.559Z,9.60
2019-04-21T23:46:18.786Z,10.77
2019-04-21T23:48:57.909Z,7.63
2019-04-21T23:51:23.310Z,8.57
2019-04-21T23:53:41.483Z,9.40
2019-04-21T23:56:13.417Z,9.20
2019-04-21T23:58:44.918Z,10.93
